sensor_id;sensor_type;location;lat;lon;timestamp;temperature;humidity
70145;DHT22;57510;51.068;3.872;2022-10-16T00:00:36;14.40;98.20
70145;DHT22;57510;51.068;3.872;2022-10-16T00:03:03;14.40;98.40
70145;DHT22;57510;51.068;3.872;2022-10-16T00:05:29;14.40;98.30
70145;DHT22;57510;51.068;3.872;2022-10-16T00:07:54;14.40;98.30
70145;DHT22;57510;51.068;3.872;2022-10-16T00:10:20;14.20;98.50
70145;DHT22;57510;51.068;3.872;2022-10-16T00:12:46;14.10;98.60
70145;DHT22;57510;51.068;3.872;2022-10-16T00:15:12;14.10;98.80
70145;DHT22;57510;51.068;3.872;2022-10-16T00:17:38;14.10;98.90
70145;DHT22;57510;51.068;3.872;2022-10-16T00:20:04;14.00;98.90
70145;DHT22;57510;51.068;3.872;2022-10-16T00:22:30;14.00;98.90
70145;DHT22;57510;51.068;3.872;2022-10-16T00:24:56;14.00;99.10
70145;DHT22;57510;51.068;3.872;2022-10-16T00:27:22;13.90;99.30
70145;DHT22;57510;51.068;3.872;2022-10-16T00:29:52;13.80;99.40
70145;DHT22;57510;51.068;3.872;2022-10-16T00:32:19;13.80;99.50
70145;DHT22;57510;51.068;3.872;2022-10-16T00:34:45;13.70;99.70
70145;DHT22;57510;51.068;3.872;2022-10-16T00:37:12;13.70;99.70
70145;DHT22;57510;51.068;3.872;2022-10-16T00:39:38;13.70;99.80
70145;DHT22;57510;51.068;3.872;2022-10-16T00:42:09;13.70;99.90
70145;DHT22;57510;51.068;3.872;2022-10-16T00:44:42;13.70;99.90
70145;DHT22;57510;51.068;3.872;2022-10-16T00:47:24;13.70;99.90
70145;DHT22;57510;51.068;3.872;2022-10-16T00:49:56;13.60;99.90
70145;DHT22;57510;51.068;3.872;2022-10-16T00:52:24;13.60;99.90
70145;DHT22;57510;51.068;3.872;2022-10-16T00:54:50;13.60;99.90
70145;DHT22;57510;51.068;3.872;2022-10-16T00:57:16;13.60;99.90
70145;DHT22;57510;51.068;3.872;2022-10-16T00:59:42;13.60;99.90
70145;DHT22;57510;51.068;3.872;2022-10-16T01:02:12;13.60;99.90
70145;DHT22;57510;51.068;3.872;2022-10-16T01:04:44;13.50;99.90
70145;DHT22;57510;51.068;3.872;2022-10-16T01:08:17;13.50;99.90
70145;DHT22;57510;51.068;3.872;2022-10-16T01:12:48;13.60;99.90
70145;DHT22;57510;51.068;3.872;2022-10-16T01:15:25;13.60;99.90
70145;DHT22;57510;51.068;3.872;2022-10-16T01:18:02;13.60;99.90
70145;DHT22;57510;51.068;3.872;2022-10-16T01:20:33;13.60;99.90
70145;DHT22;57510;51.068;3.872;2022-10-16T01:23:27;13.60;99.90
70145;DHT22;57510;51.068;3.872;2022-10-16T01:28:57;13.60;99.90
70145;DHT22;57510;51.068;3.872;2022-10-16T01:31:29;13.60;99.90
70145;DHT22;57510;51.068;3.872;2022-10-16T01:34:06;13.60;99.90
70145;DHT22;57510;51.068;3.872;2022-10-16T01:36:38;13.60;99.90
70145;DHT22;57510;51.068;3.872;2022-10-16T01:39:04;13.60;99.90
70145;DHT22;57510;51.068;3.872;2022-10-16T01:41:39;13.50;99.90
70145;DHT22;57510;51.068;3.872;2022-10-16T01:44:11;13.50;99.90
70145;DHT22;57510;51.068;3.872;2022-10-16T01:46:41;13.50;99.90
70145;DHT22;57510;51.068;3.872;2022-10-16T01:49:08;13.50;99.90
70145;DHT22;57510;51.068;3.872;2022-10-16T01:51:35;13.60;99.90
70145;DHT22;57510;51.068;3.872;2022-10-16T01:54:04;13.50;99.90
70145;DHT22;57510;51.068;3.872;2022-10-16T01:56:32;13.60;99.90
70145;DHT22;57510;51.068;3.872;2022-10-16T01:59:04;13.60;99.90
70145;DHT22;57510;51.068;3.872;2022-10-16T02:01:33;13.60;99.90
70145;DHT22;57510;51.068;3.872;2022-10-16T02:04:11;13.60;99.90
70145;DHT22;57510;51.068;3.872;2022-10-16T02:06:38;13.60;99.90
70145;DHT22;57510;51.068;3.872;2022-10-16T02:09:04;13.60;99.90
70145;DHT22;57510;51.068;3.872;2022-10-16T02:11:30;13.50;99.90
70145;DHT22;57510;51.068;3.872;2022-10-16T02:14:00;13.50;99.90
70145;DHT22;57510;51.068;3.872;2022-10-16T02:16:42;13.60;99.90
70145;DHT22;57510;51.068;3.872;2022-10-16T02:19:08;13.50;99.90
70145;DHT22;57510;51.068;3.872;2022-10-16T02:21:54;13.50;99.90
70145;DHT22;57510;51.068;3.872;2022-10-16T02:24:34;13.50;99.90
70145;DHT22;57510;51.068;3.872;2022-10-16T02:27:07;13.50;99.90
70145;DHT22;57510;51.068;3.872;2022-10-16T02:29:39;13.50;99.90
70145;DHT22;57510;51.068;3.872;2022-10-16T02:32:07;13.50;99.90
70145;DHT22;57510;51.068;3.872;2022-10-16T02:34:37;13.50;99.90
70145;DHT22;57510;51.068;3.872;2022-10-16T02:37:05;13.50;99.90
70145;DHT22;57510;51.068;3.872;2022-10-16T02:39:33;13.50;99.90
70145;DHT22;57510;51.068;3.872;2022-10-16T02:41:59;13.40;99.90
70145;DHT22;57510;51.068;3.872;2022-10-16T02:44:25;13.50;99.90
70145;DHT22;57510;51.068;3.872;2022-10-16T02:46:50;13.50;99.90
70145;DHT22;57510;51.068;3.872;2022-10-16T02:49:16;13.50;99.90
70145;DHT22;57510;51.068;3.872;2022-10-16T02:51:42;13.50;99.90
70145;DHT22;57510;51.068;3.872;2022-10-16T02:54:08;13.50;99.90
70145;DHT22;57510;51.068;3.872;2022-10-16T02:56:33;13.40;99.90
70145;DHT22;57510;51.068;3.872;2022-10-16T02:58:59;13.50;99.90
70145;DHT22;57510;51.068;3.872;2022-10-16T03:01:25;13.50;99.90
70145;DHT22;57510;51.068;3.872;2022-10-16T03:03:51;13.50;99.90
70145;DHT22;57510;51.068;3.872;2022-10-16T03:06:16;13.50;99.90
70145;DHT22;57510;51.068;3.872;2022-10-16T03:08:42;13.40;99.90
70145;DHT22;57510;51.068;3.872;2022-10-16T03:11:08;13.40;99.90
70145;DHT22;57510;51.068;3.872;2022-10-16T03:13:34;13.40;99.90
70145;DHT22;57510;51.068;3.872;2022-10-16T03:16:03;13.40;99.90
70145;DHT22;57510;51.068;3.872;2022-10-16T03:18:28;13.40;99.90
70145;DHT22;57510;51.068;3.872;2022-10-16T03:20:54;13.40;99.90
70145;DHT22;57510;51.068;3.872;2022-10-16T03:23:20;13.40;99.90
70145;DHT22;57510;51.068;3.872;2022-10-16T03:25:45;13.40;99.90
70145;DHT22;57510;51.068;3.872;2022-10-16T03:28:11;13.40;99.90
70145;DHT22;57510;51.068;3.872;2022-10-16T03:30:37;13.40;99.90
70145;DHT22;57510;51.068;3.872;2022-10-16T03:33:05;13.40;99.90
70145;DHT22;57510;51.068;3.872;2022-10-16T03:35:30;13.40;99.90
70145;DHT22;57510;51.068;3.872;2022-10-16T03:37:56;13.40;99.90
70145;DHT22;57510;51.068;3.872;2022-10-16T03:40:22;13.40;99.90
70145;DHT22;57510;51.068;3.872;2022-10-16T03:42:50;13.40;99.90
70145;DHT22;57510;51.068;3.872;2022-10-16T03:45:16;13.40;99.90
70145;DHT22;57510;51.068;3.872;2022-10-16T03:47:42;13.40;99.90
70145;DHT22;57510;51.068;3.872;2022-10-16T03:50:08;13.30;99.90
70145;DHT22;57510;51.068;3.872;2022-10-16T03:52:34;13.30;99.90
70145;DHT22;57510;51.068;3.872;2022-10-16T03:55:00;13.40;99.90
70145;DHT22;57510;51.068;3.872;2022-10-16T03:57:25;13.30;99.90
70145;DHT22;57510;51.068;3.872;2022-10-16T03:59:51;13.20;99.90
70145;DHT22;57510;51.068;3.872;2022-10-16T04:02:17;13.20;99.90
70145;DHT22;57510;51.068;3.872;2022-10-16T04:04:43;13.20;99.90
70145;DHT22;57510;51.068;3.872;2022-10-16T04:07:09;13.20;99.90
70145;DHT22;57510;51.068;3.872;2022-10-16T04:09:35;13.20;99.90
70145;DHT22;57510;51.068;3.872;2022-10-16T04:12:01;13.10;99.90
70145;DHT22;57510;51.068;3.872;2022-10-16T04:14:27;13.10;99.90
70145;DHT22;57510;51.068;3.872;2022-10-16T04:16:52;13.10;99.90
70145;DHT22;57510;51.068;3.872;2022-10-16T04:19:18;13.10;99.90
70145;DHT22;57510;51.068;3.872;2022-10-16T04:21:44;13.10;99.90
70145;DHT22;57510;51.068;3.872;2022-10-16T04:24:10;13.10;99.90
70145;DHT22;57510;51.068;3.872;2022-10-16T04:26:37;13.10;99.90
70145;DHT22;57510;51.068;3.872;2022-10-16T04:29:02;13.10;99.90
70145;DHT22;57510;51.068;3.872;2022-10-16T04:31:28;13.10;99.90
70145;DHT22;57510;51.068;3.872;2022-10-16T04:33:54;13.10;99.90
70145;DHT22;57510;51.068;3.872;2022-10-16T04:36:20;13.10;99.90
70145;DHT22;57510;51.068;3.872;2022-10-16T04:38:45;13.10;99.90
70145;DHT22;57510;51.068;3.872;2022-10-16T04:41:11;13.10;99.90
70145;DHT22;57510;51.068;3.872;2022-10-16T04:43:36;13.10;99.90
70145;DHT22;57510;51.068;3.872;2022-10-16T04:46:04;13.10;99.90
70145;DHT22;57510;51.068;3.872;2022-10-16T04:48:31;13.10;99.90
70145;DHT22;57510;51.068;3.872;2022-10-16T04:50:56;13.10;99.90
70145;DHT22;57510;51.068;3.872;2022-10-16T04:53:22;13.10;99.90
70145;DHT22;57510;51.068;3.872;2022-10-16T04:55:49;13.10;99.90
70145;DHT22;57510;51.068;3.872;2022-10-16T04:58:15;13.10;99.90
70145;DHT22;57510;51.068;3.872;2022-10-16T05:00:41;13.10;99.90
70145;DHT22;57510;51.068;3.872;2022-10-16T05:03:06;13.20;99.90
70145;DHT22;57510;51.068;3.872;2022-10-16T05:05:34;13.20;99.90
70145;DHT22;57510;51.068;3.872;2022-10-16T05:08:00;13.20;99.90
70145;DHT22;57510;51.068;3.872;2022-10-16T05:10:26;13.20;99.90
70145;DHT22;57510;51.068;3.872;2022-10-16T05:12:51;13.10;99.90
70145;DHT22;57510;51.068;3.872;2022-10-16T05:15:17;13.10;99.90
70145;DHT22;57510;51.068;3.872;2022-10-16T05:17:43;13.00;99.90
70145;DHT22;57510;51.068;3.872;2022-10-16T05:20:09;13.00;99.90
70145;DHT22;57510;51.068;3.872;2022-10-16T05:22:36;13.00;99.90
70145;DHT22;57510;51.068;3.872;2022-10-16T05:25:01;13.10;99.90
70145;DHT22;57510;51.068;3.872;2022-10-16T05:27:27;13.20;99.90
70145;DHT22;57510;51.068;3.872;2022-10-16T05:29:53;13.20;99.90
70145;DHT22;57510;51.068;3.872;2022-10-16T05:32:21;13.20;99.90
70145;DHT22;57510;51.068;3.872;2022-10-16T05:34:47;13.40;99.90
70145;DHT22;57510;51.068;3.872;2022-10-16T05:37:12;13.50;99.90
70145;DHT22;57510;51.068;3.872;2022-10-16T05:39:38;13.60;99.90
70145;DHT22;57510;51.068;3.872;2022-10-16T05:42:05;13.70;99.90
70145;DHT22;57510;51.068;3.872;2022-10-16T05:44:32;13.70;99.90
70145;DHT22;57510;51.068;3.872;2022-10-16T05:46:57;13.80;99.90
70145;DHT22;57510;51.068;3.872;2022-10-16T05:49:23;13.90;99.90
70145;DHT22;57510;51.068;3.872;2022-10-16T05:51:49;14.00;99.90
70145;DHT22;57510;51.068;3.872;2022-10-16T05:54:15;14.00;99.90
70145;DHT22;57510;51.068;3.872;2022-10-16T05:56:40;14.00;99.90
70145;DHT22;57510;51.068;3.872;2022-10-16T05:59:06;13.90;99.90
70145;DHT22;57510;51.068;3.872;2022-10-16T06:01:32;13.90;99.90
70145;DHT22;57510;51.068;3.872;2022-10-16T06:03:59;13.90;99.90
70145;DHT22;57510;51.068;3.872;2022-10-16T06:06:27;13.80;99.90
70145;DHT22;57510;51.068;3.872;2022-10-16T06:08:54;13.70;99.90
70145;DHT22;57510;51.068;3.872;2022-10-16T06:11:26;13.60;99.90
70145;DHT22;57510;51.068;3.872;2022-10-16T06:13:57;13.60;99.90
70145;DHT22;57510;51.068;3.872;2022-10-16T06:16:26;13.50;99.90
70145;DHT22;57510;51.068;3.872;2022-10-16T06:18:53;13.50;99.90
70145;DHT22;57510;51.068;3.872;2022-10-16T06:21:22;13.50;99.90
70145;DHT22;57510;51.068;3.872;2022-10-16T06:23:50;13.50;99.90
70145;DHT22;57510;51.068;3.872;2022-10-16T06:26:17;13.50;99.90
70145;DHT22;57510;51.068;3.872;2022-10-16T06:28:43;13.50;99.90
70145;DHT22;57510;51.068;3.872;2022-10-16T06:31:12;13.50;99.90
70145;DHT22;57510;51.068;3.872;2022-10-16T06:33:43;13.50;99.90
70145;DHT22;57510;51.068;3.872;2022-10-16T06:36:15;13.50;99.90
70145;DHT22;57510;51.068;3.872;2022-10-16T06:38:42;13.50;99.90
70145;DHT22;57510;51.068;3.872;2022-10-16T06:41:12;13.50;99.90
70145;DHT22;57510;51.068;3.872;2022-10-16T06:43:38;13.50;99.90
70145;DHT22;57510;51.068;3.872;2022-10-16T06:46:06;13.50;99.90
70145;DHT22;57510;51.068;3.872;2022-10-16T06:48:33;13.50;99.90
70145;DHT22;57510;51.068;3.872;2022-10-16T06:53:25;13.60;99.90
70145;DHT22;57510;51.068;3.872;2022-10-16T06:55:51;13.50;99.90
70145;DHT22;57510;51.068;3.872;2022-10-16T06:58:18;13.60;99.90
70145;DHT22;57510;51.068;3.872;2022-10-16T07:00:46;13.70;99.90
70145;DHT22;57510;51.068;3.872;2022-10-16T07:03:12;13.70;99.90
70145;DHT22;57510;51.068;3.872;2022-10-16T07:05:39;13.70;99.90
70145;DHT22;57510;51.068;3.872;2022-10-16T07:08:06;13.70;99.90
70145;DHT22;57510;51.068;3.872;2022-10-16T07:10:33;13.80;99.90
70145;DHT22;57510;51.068;3.872;2022-10-16T07:12:59;13.80;99.90
70145;DHT22;57510;51.068;3.872;2022-10-16T07:15:25;13.90;99.90
70145;DHT22;57510;51.068;3.872;2022-10-16T07:17:51;13.80;99.90
70145;DHT22;57510;51.068;3.872;2022-10-16T07:20:17;13.80;99.90
70145;DHT22;57510;51.068;3.872;2022-10-16T07:22:43;13.90;99.90
70145;DHT22;57510;51.068;3.872;2022-10-16T07:25:12;13.90;99.90
70145;DHT22;57510;51.068;3.872;2022-10-16T07:27:38;13.90;99.90
70145;DHT22;57510;51.068;3.872;2022-10-16T07:30:04;13.90;99.90
70145;DHT22;57510;51.068;3.872;2022-10-16T07:32:31;13.90;99.90
70145;DHT22;57510;51.068;3.872;2022-10-16T07:34:57;14.00;99.90
70145;DHT22;57510;51.068;3.872;2022-10-16T07:37:23;14.00;99.90
70145;DHT22;57510;51.068;3.872;2022-10-16T07:39:48;14.00;99.90
70145;DHT22;57510;51.068;3.872;2022-10-16T07:42:16;14.10;99.90
70145;DHT22;57510;51.068;3.872;2022-10-16T07:44:42;14.20;99.90
70145;DHT22;57510;51.068;3.872;2022-10-16T07:47:08;14.20;99.90
70145;DHT22;57510;51.068;3.872;2022-10-16T07:49:34;14.30;99.90
70145;DHT22;57510;51.068;3.872;2022-10-16T07:51:59;14.30;99.90
70145;DHT22;57510;51.068;3.872;2022-10-16T07:54:25;14.40;99.90
70145;DHT22;57510;51.068;3.872;2022-10-16T07:56:51;14.50;99.90
70145;DHT22;57510;51.068;3.872;2022-10-16T07:59:18;14.40;99.90
70145;DHT22;57510;51.068;3.872;2022-10-16T08:01:44;14.40;99.90
70145;DHT22;57510;51.068;3.872;2022-10-16T08:04:10;14.50;99.90
70145;DHT22;57510;51.068;3.872;2022-10-16T08:06:38;14.60;99.80
70145;DHT22;57510;51.068;3.872;2022-10-16T08:09:04;14.60;99.70
70145;DHT22;57510;51.068;3.872;2022-10-16T08:11:30;14.60;99.80
70145;DHT22;57510;51.068;3.872;2022-10-16T08:13:56;14.60;99.90
70145;DHT22;57510;51.068;3.872;2022-10-16T08:16:22;14.60;99.90
70145;DHT22;57510;51.068;3.872;2022-10-16T08:18:48;14.80;99.80
70145;DHT22;57510;51.068;3.872;2022-10-16T08:21:18;14.90;99.60
70145;DHT22;57510;51.068;3.872;2022-10-16T08:23:44;14.90;99.40
70145;DHT22;57510;51.068;3.872;2022-10-16T08:26:10;15.00;99.30
70145;DHT22;57510;51.068;3.872;2022-10-16T08:28:36;15.10;99.10
70145;DHT22;57510;51.068;3.872;2022-10-16T08:31:10;15.10;99.10
70145;DHT22;57510;51.068;3.872;2022-10-16T08:33:38;15.10;99.20
70145;DHT22;57510;51.068;3.872;2022-10-16T08:36:05;15.30;99.00
70145;DHT22;57510;51.068;3.872;2022-10-16T08:38:31;15.30;99.00
70145;DHT22;57510;51.068;3.872;2022-10-16T08:41:50;15.40;98.90
70145;DHT22;57510;51.068;3.872;2022-10-16T08:47:21;15.70;98.50
70145;DHT22;57510;51.068;3.872;2022-10-16T08:49:58;15.60;98.30
70145;DHT22;57510;51.068;3.872;2022-10-16T08:52:29;15.70;98.50
70145;DHT22;57510;51.068;3.872;2022-10-16T08:54:56;15.70;98.60
70145;DHT22;57510;51.068;3.872;2022-10-16T08:57:24;15.80;98.00
70145;DHT22;57510;51.068;3.872;2022-10-16T08:59:52;15.70;98.10
70145;DHT22;57510;51.068;3.872;2022-10-16T09:02:34;15.70;98.40
70145;DHT22;57510;51.068;3.872;2022-10-16T09:11:05;15.90;97.90
70145;DHT22;57510;51.068;3.872;2022-10-16T09:13:32;15.90;98.00
70145;DHT22;57510;51.068;3.872;2022-10-16T09:19:25;16.00;98.20
70145;DHT22;57510;51.068;3.872;2022-10-16T09:21:56;15.80;98.00
70145;DHT22;57510;51.068;3.872;2022-10-16T09:24:25;15.70;98.10
70145;DHT22;57510;51.068;3.872;2022-10-16T09:26:50;15.90;98.30
70145;DHT22;57510;51.068;3.872;2022-10-16T09:29:19;16.00;98.00
70145;DHT22;57510;51.068;3.872;2022-10-16T09:31:50;16.10;97.80
70145;DHT22;57510;51.068;3.872;2022-10-16T09:36:49;16.20;97.60
70145;DHT22;57510;51.068;3.872;2022-10-16T09:39:16;16.20;97.60
70145;DHT22;57510;51.068;3.872;2022-10-16T09:41:43;16.30;97.30
70145;DHT22;57510;51.068;3.872;2022-10-16T09:44:28;16.40;97.40
70145;DHT22;57510;51.068;3.872;2022-10-16T09:47:11;16.50;97.20
70145;DHT22;57510;51.068;3.872;2022-10-16T09:49:38;16.60;97.10
70145;DHT22;57510;51.068;3.872;2022-10-16T09:52:04;16.70;97.10
70145;DHT22;57510;51.068;3.872;2022-10-16T09:54:31;16.90;96.60
70145;DHT22;57510;51.068;3.872;2022-10-16T09:57:07;17.00;96.30
70145;DHT22;57510;51.068;3.872;2022-10-16T09:59:49;17.00;96.20
70145;DHT22;57510;51.068;3.872;2022-10-16T10:02:17;17.20;96.20
70145;DHT22;57510;51.068;3.872;2022-10-16T10:04:52;17.30;95.80
70145;DHT22;57510;51.068;3.872;2022-10-16T10:07:42;17.40;95.40
70145;DHT22;57510;51.068;3.872;2022-10-16T10:10:27;17.50;95.60
70145;DHT22;57510;51.068;3.872;2022-10-16T10:12:54;17.50;95.30
70145;DHT22;57510;51.068;3.872;2022-10-16T10:15:21;17.60;95.30
70145;DHT22;57510;51.068;3.872;2022-10-16T10:17:56;17.70;95.10
70145;DHT22;57510;51.068;3.872;2022-10-16T10:20:30;17.90;94.70
70145;DHT22;57510;51.068;3.872;2022-10-16T10:22:58;18.00;94.50
70145;DHT22;57510;51.068;3.872;2022-10-16T10:33:45;18.30;94.70
70145;DHT22;57510;51.068;3.872;2022-10-16T10:36:29;18.50;94.10
70145;DHT22;57510;51.068;3.872;2022-10-16T10:44:50;18.60;93.60
70145;DHT22;57510;51.068;3.872;2022-10-16T10:55:43;19.40;92.40
70145;DHT22;57510;51.068;3.872;2022-10-16T11:03:24;19.50;91.30
70145;DHT22;57510;51.068;3.872;2022-10-16T11:05:59;19.60;91.70
70145;DHT22;57510;51.068;3.872;2022-10-16T11:08:48;19.60;91.10
70145;DHT22;57510;51.068;3.872;2022-10-16T11:11:26;19.50;91.20
70145;DHT22;57510;51.068;3.872;2022-10-16T11:16:56;19.30;91.60
70145;DHT22;57510;51.068;3.872;2022-10-16T11:22:36;19.40;91.40
70145;DHT22;57510;51.068;3.872;2022-10-16T11:25:29;19.70;91.60
70145;DHT22;57510;51.068;3.872;2022-10-16T11:28:01;19.70;91.50
70145;DHT22;57510;51.068;3.872;2022-10-16T11:31:02;19.80;91.60
70145;DHT22;57510;51.068;3.872;2022-10-16T11:33:36;20.00;91.00
70145;DHT22;57510;51.068;3.872;2022-10-16T11:36:25;19.90;90.20
70145;DHT22;57510;51.068;3.872;2022-10-16T11:41:49;20.10;90.00
70145;DHT22;57510;51.068;3.872;2022-10-16T11:47:35;20.20;90.10
70145;DHT22;57510;51.068;3.872;2022-10-16T11:50:17;20.10;90.20
70145;DHT22;57510;51.068;3.872;2022-10-16T11:52:57;20.20;89.10
70145;DHT22;57510;51.068;3.872;2022-10-16T11:55:47;20.10;89.60
70145;DHT22;57510;51.068;3.872;2022-10-16T11:58:33;19.80;90.60
70145;DHT22;57510;51.068;3.872;2022-10-16T12:01:10;19.60;90.20
70145;DHT22;57510;51.068;3.872;2022-10-16T12:07:17;19.10;90.60
70145;DHT22;57510;51.068;3.872;2022-10-16T12:09:41;19.20;90.50
70145;DHT22;57510;51.068;3.872;2022-10-16T12:12:27;19.10;91.30
70145;DHT22;57510;51.068;3.872;2022-10-16T12:15:25;19.00;89.50
70145;DHT22;57510;51.068;3.872;2022-10-16T12:17:52;19.20;89.60
70145;DHT22;57510;51.068;3.872;2022-10-16T12:20:22;19.30;88.50
70145;DHT22;57510;51.068;3.872;2022-10-16T12:23:00;19.30;87.70
70145;DHT22;57510;51.068;3.872;2022-10-16T12:25:34;19.40;87.80
70145;DHT22;57510;51.068;3.872;2022-10-16T12:28:19;19.30;88.80
70145;DHT22;57510;51.068;3.872;2022-10-16T12:31:06;19.20;89.40
70145;DHT22;57510;51.068;3.872;2022-10-16T12:33:57;19.30;89.00
70145;DHT22;57510;51.068;3.872;2022-10-16T12:36:47;19.50;88.60
70145;DHT22;57510;51.068;3.872;2022-10-16T12:39:24;19.50;90.20
70145;DHT22;57510;51.068;3.872;2022-10-16T12:42:04;19.60;89.60
70145;DHT22;57510;51.068;3.872;2022-10-16T12:44:35;19.50;89.70
70145;DHT22;57510;51.068;3.872;2022-10-16T12:47:02;19.50;88.50
70145;DHT22;57510;51.068;3.872;2022-10-16T12:51:54;19.70;88.70
70145;DHT22;57510;51.068;3.872;2022-10-16T12:54:29;20.00;88.40
70145;DHT22;57510;51.068;3.872;2022-10-16T12:59:38;20.20;87.80
70145;DHT22;57510;51.068;3.872;2022-10-16T13:02:22;20.10;87.10
70145;DHT22;57510;51.068;3.872;2022-10-16T13:11:11;20.20;87.40
70145;DHT22;57510;51.068;3.872;2022-10-16T13:19:33;20.40;87.30
70145;DHT22;57510;51.068;3.872;2022-10-16T13:24:46;20.50;87.20
70145;DHT22;57510;51.068;3.872;2022-10-16T13:29:59;20.20;88.70
70145;DHT22;57510;51.068;3.872;2022-10-16T13:32:26;19.90;89.40
70145;DHT22;57510;51.068;3.872;2022-10-16T13:34:53;20.00;89.60
70145;DHT22;57510;51.068;3.872;2022-10-16T13:37:22;19.90;89.70
70145;DHT22;57510;51.068;3.872;2022-10-16T13:39:48;20.10;90.00
70145;DHT22;57510;51.068;3.872;2022-10-16T13:44:53;20.30;90.20
70145;DHT22;57510;51.068;3.872;2022-10-16T13:47:21;20.60;90.10
70145;DHT22;57510;51.068;3.872;2022-10-16T13:49:58;20.50;89.10
70145;DHT22;57510;51.068;3.872;2022-10-16T13:52:23;20.30;89.40
70145;DHT22;57510;51.068;3.872;2022-10-16T13:54:49;20.30;88.70
70145;DHT22;57510;51.068;3.872;2022-10-16T13:57:16;20.10;88.20
70145;DHT22;57510;51.068;3.872;2022-10-16T13:59:42;20.10;88.20
70145;DHT22;57510;51.068;3.872;2022-10-16T14:02:38;20.10;88.10
70145;DHT22;57510;51.068;3.872;2022-10-16T14:05:08;20.00;88.10
70145;DHT22;57510;51.068;3.872;2022-10-16T14:07:36;19.80;88.70
70145;DHT22;57510;51.068;3.872;2022-10-16T14:10:05;19.70;89.10
70145;DHT22;57510;51.068;3.872;2022-10-16T14:12:32;19.80;89.70
70145;DHT22;57510;51.068;3.872;2022-10-16T14:14:59;19.80;89.60
70145;DHT22;57510;51.068;3.872;2022-10-16T14:17:31;20.00;90.10
70145;DHT22;57510;51.068;3.872;2022-10-16T14:20:03;20.10;90.40
70145;DHT22;57510;51.068;3.872;2022-10-16T14:22:36;20.20;90.10
70145;DHT22;57510;51.068;3.872;2022-10-16T14:25:20;20.00;90.10
70145;DHT22;57510;51.068;3.872;2022-10-16T14:30:27;19.80;90.30
70145;DHT22;57510;51.068;3.872;2022-10-16T14:33:06;19.50;90.80
70145;DHT22;57510;51.068;3.872;2022-10-16T14:35:45;19.30;91.20
70145;DHT22;57510;51.068;3.872;2022-10-16T14:38:19;19.30;91.50
70145;DHT22;57510;51.068;3.872;2022-10-16T14:40:49;19.40;91.60
70145;DHT22;57510;51.068;3.872;2022-10-16T14:43:22;19.70;91.10
70145;DHT22;57510;51.068;3.872;2022-10-16T14:45:54;19.60;91.20
70145;DHT22;57510;51.068;3.872;2022-10-16T14:48:20;19.60;90.80
70145;DHT22;57510;51.068;3.872;2022-10-16T14:50:46;19.50;91.10
70145;DHT22;57510;51.068;3.872;2022-10-16T14:53:13;19.30;90.80
70145;DHT22;57510;51.068;3.872;2022-10-16T14:55:40;19.10;90.90
70145;DHT22;57510;51.068;3.872;2022-10-16T14:58:18;19.20;90.60
70145;DHT22;57510;51.068;3.872;2022-10-16T15:00:44;19.20;91.00
70145;DHT22;57510;51.068;3.872;2022-10-16T15:03:10;19.20;90.90
70145;DHT22;57510;51.068;3.872;2022-10-16T15:05:37;19.20;90.80
70145;DHT22;57510;51.068;3.872;2022-10-16T15:08:03;19.20;91.00
70145;DHT22;57510;51.068;3.872;2022-10-16T15:10:35;19.20;91.00
70145;DHT22;57510;51.068;3.872;2022-10-16T15:13:02;19.20;91.00
70145;DHT22;57510;51.068;3.872;2022-10-16T15:17:59;19.20;91.10
70145;DHT22;57510;51.068;3.872;2022-10-16T15:20:31;19.00;91.30
70145;DHT22;57510;51.068;3.872;2022-10-16T15:23:00;19.10;91.20
70145;DHT22;57510;51.068;3.872;2022-10-16T15:25:32;19.20;91.10
70145;DHT22;57510;51.068;3.872;2022-10-16T15:27:59;19.20;91.10
70145;DHT22;57510;51.068;3.872;2022-10-16T15:30:26;19.20;91.10
70145;DHT22;57510;51.068;3.872;2022-10-16T15:32:52;19.30;91.20
70145;DHT22;57510;51.068;3.872;2022-10-16T15:35:18;19.30;91.10
70145;DHT22;57510;51.068;3.872;2022-10-16T15:37:44;19.40;91.20
70145;DHT22;57510;51.068;3.872;2022-10-16T15:40:10;19.20;91.50
70145;DHT22;57510;51.068;3.872;2022-10-16T15:42:36;19.20;91.40
70145;DHT22;57510;51.068;3.872;2022-10-16T15:45:03;19.00;91.70
70145;DHT22;57510;51.068;3.872;2022-10-16T15:47:29;18.80;92.20
70145;DHT22;57510;51.068;3.872;2022-10-16T15:49:55;18.80;92.40
70145;DHT22;57510;51.068;3.872;2022-10-16T15:52:20;18.70;92.60
70145;DHT22;57510;51.068;3.872;2022-10-16T15:54:46;18.60;92.70
70145;DHT22;57510;51.068;3.872;2022-10-16T15:57:14;18.50;93.00
70145;DHT22;57510;51.068;3.872;2022-10-16T15:59:39;18.30;93.50
70145;DHT22;57510;51.068;3.872;2022-10-16T16:02:05;18.30;93.60
70145;DHT22;57510;51.068;3.872;2022-10-16T16:04:31;18.30;93.60
70145;DHT22;57510;51.068;3.872;2022-10-16T16:06:59;18.20;93.70
70145;DHT22;57510;51.068;3.872;2022-10-16T16:09:26;18.20;93.90
70145;DHT22;57510;51.068;3.872;2022-10-16T16:11:51;18.20;94.10
70145;DHT22;57510;51.068;3.872;2022-10-16T16:14:19;18.10;94.20
70145;DHT22;57510;51.068;3.872;2022-10-16T16:16:45;18.20;94.10
70145;DHT22;57510;51.068;3.872;2022-10-16T16:21:57;18.20;94.10
70145;DHT22;57510;51.068;3.872;2022-10-16T16:24:23;18.10;94.20
70145;DHT22;57510;51.068;3.872;2022-10-16T16:26:57;18.10;94.20
70145;DHT22;57510;51.068;3.872;2022-10-16T16:29:23;18.10;94.20
70145;DHT22;57510;51.068;3.872;2022-10-16T16:31:49;18.10;94.40
70145;DHT22;57510;51.068;3.872;2022-10-16T16:34:26;18.00;94.60
70145;DHT22;57510;51.068;3.872;2022-10-16T16:36:54;17.90;94.80
70145;DHT22;57510;51.068;3.872;2022-10-16T16:39:20;17.90;94.80
70145;DHT22;57510;51.068;3.872;2022-10-16T16:41:49;17.90;94.80
70145;DHT22;57510;51.068;3.872;2022-10-16T16:44:14;17.90;94.90
70145;DHT22;57510;51.068;3.872;2022-10-16T16:46:42;17.90;94.90
70145;DHT22;57510;51.068;3.872;2022-10-16T16:49:10;17.90;94.90
70145;DHT22;57510;51.068;3.872;2022-10-16T16:51:38;17.90;95.00
70145;DHT22;57510;51.068;3.872;2022-10-16T16:54:04;17.90;95.10
70145;DHT22;57510;51.068;3.872;2022-10-16T16:56:32;17.80;95.30
70145;DHT22;57510;51.068;3.872;2022-10-16T16:59:00;17.80;95.50
70145;DHT22;57510;51.068;3.872;2022-10-16T17:01:27;17.70;95.60
70145;DHT22;57510;51.068;3.872;2022-10-16T17:03:55;17.70;95.70
70145;DHT22;57510;51.068;3.872;2022-10-16T17:06:27;17.60;95.90
70145;DHT22;57510;51.068;3.872;2022-10-16T17:08:53;17.60;95.90
70145;DHT22;57510;51.068;3.872;2022-10-16T17:11:21;17.50;95.90
70145;DHT22;57510;51.068;3.872;2022-10-16T17:13:50;17.50;95.90
70145;DHT22;57510;51.068;3.872;2022-10-16T17:16:15;17.50;96.00
70145;DHT22;57510;51.068;3.872;2022-10-16T17:18:42;17.50;96.00
70145;DHT22;57510;51.068;3.872;2022-10-16T17:21:09;17.50;96.10
70145;DHT22;57510;51.068;3.872;2022-10-16T17:23:36;17.50;96.10